Time;durP1;ratioP1;P1;durP2;ratioP2;P2;SDS_P1;SDS_P2;PMS_P1;PMS_P2;Temp;Humidity;BMP_temperature;BMP_pressure;BME280_temperature;BME280_humidity;BME280_pressure;Samples;Min_cycle;Max_cycle;Signal;HPM_P1;HPM_P2
2022/01/03 00:02:16;;;;;;;;;;;1.60;95.60;;;;;;4998079;28;20332;-91
2022/01/03 00:04:42;;;;;;;;;;;1.60;95.50;;;;;;4998926;28;19911;-91
2022/01/03 00:07:09;;;;;;;;;;;1.70;95.20;;;;;;5002492;28;19929;-90
2022/01/03 00:09:35;;;;;;;;;;;1.70;95.30;;;;;;5003167;28;20003;-91
2022/01/03 00:12:01;;;;;;;;;;;1.70;95.30;;;;;;5018848;28;19948;-90
2022/01/03 00:14:27;;;;;;;;;;;1.70;95.30;;;;;;4997851;28;19931;-90
2022/01/03 00:16:52;;;;;;;;;;;1.70;95.30;;;;;;4997735;28;19910;-90
2022/01/03 00:19:18;;;;;;;;;;;1.70;95.20;;;;;;4998442;28;19912;-91
2022/01/03 00:21:44;;;;;;;;;;;1.70;95.10;;;;;;4997737;28;19905;-90
2022/01/03 00:24:11;;;;;;;;;;;1.80;95.20;;;;;;4998293;28;20402;-90
2022/01/03 00:26:37;;;;;;;;;;;1.80;95.10;;;;;;4997668;28;19955;-90
2022/01/03 00:29:15;;;;;;;;;;;1.80;95.20;;;;;;4998216;28;19905;-90
2022/01/03 00:31:42;;;;;;;;;;;1.80;95.20;;;;;;4998036;28;19924;-90
2022/01/03 00:34:08;;;;;;;;;;;1.80;95.20;;;;;;5014875;28;19909;-90
2022/01/03 00:36:34;;;;;;;;;;;1.80;95.20;;;;;;4997537;28;19909;-90
2022/01/03 00:39:00;;;;;;;;;;;1.90;95.20;;;;;;4997406;28;19931;-90
2022/01/03 00:41:26;;;;;;;;;;;1.90;95.20;;;;;;4997584;28;19911;-90
2022/01/03 00:43:52;;;;;;;;;;;1.90;95.30;;;;;;4997508;28;19992;-90
2022/01/03 00:46:18;;;;;;;;;;;2.00;95.40;;;;;;4997608;28;19928;-90
2022/01/03 00:48:44;;;;;;;;;;;2.00;95.30;;;;;;4997940;28;20353;-90
2022/01/03 00:51:11;;;;;;;;;;;2.00;95.30;;;;;;5014800;28;19937;-90
2022/01/03 00:53:37;;;;;;;;;;;2.10;95.20;;;;;;4997420;28;19909;-90
2022/01/03 00:56:12;;;;;;;;;;;2.10;95.20;;;;;;4997769;28;19963;-90
2022/01/03 00:58:56;;;;;;;;;;;2.10;95.20;;;;;;4997785;28;20050;-90
2022/01/03 01:01:23;;;;;;;;;;;2.10;95.30;;;;;;4997684;28;20267;-90
2022/01/03 01:03:51;;;;;;;;;;;2.20;95.30;;;;;;4997197;28;19913;-90
2022/01/03 01:06:18;;;;;;;;;;;2.20;95.30;;;;;;4999193;28;20000;-90
2022/01/03 01:08:44;;;;;;;;;;;2.20;95.20;;;;;;5018616;28;19959;-89
2022/01/03 01:11:10;;;;;;;;;;;2.20;95.30;;;;;;5001343;28;19924;-90
2022/01/03 01:13:36;;;;;;;;;;;2.20;95.30;;;;;;5000899;28;19910;-89
2022/01/03 01:16:03;;;;;;;;;;;2.20;95.20;;;;;;5002418;28;19932;-89
2022/01/03 01:18:31;;;;;;;;;;;2.20;95.30;;;;;;5019677;28;19912;-90
2022/01/03 01:20:57;;;;;;;;;;;2.20;95.30;;;;;;5001893;28;19905;-89
2022/01/03 01:23:23;;;;;;;;;;;2.20;95.40;;;;;;5002107;28;19912;-90
2022/01/03 01:28:17;;;;;;;;;;;2.30;95.40;;;;;;5018252;28;19995;-91
2022/01/03 01:30:43;;;;;;;;;;;2.30;95.50;;;;;;5000868;28;19937;-90
2022/01/03 01:33:16;;;;;;;;;;;2.30;95.50;;;;;;5000598;28;19975;-90
2022/01/03 01:35:46;;;;;;;;;;;2.30;95.50;;;;;;5000951;28;19964;-90
2022/01/03 01:38:13;;;;;;;;;;;2.30;95.50;;;;;;5001186;28;19956;-90
2022/01/03 01:40:49;;;;;;;;;;;2.30;95.60;;;;;;5000433;28;19971;-90
2022/01/03 01:43:18;;;;;;;;;;;2.30;95.60;;;;;;5018299;28;19906;-90
2022/01/03 01:45:46;;;;;;;;;;;2.30;95.80;;;;;;5010041;28;19932;-91
2022/01/03 01:48:12;;;;;;;;;;;2.30;96.00;;;;;;5009974;28;19912;-89
2022/01/03 01:50:39;;;;;;;;;;;2.30;95.90;;;;;;5009365;28;19906;-91
2022/01/03 01:53:05;;;;;;;;;;;2.30;96.00;;;;;;5004437;28;19931;-91
2022/01/03 01:55:31;;;;;;;;;;;2.30;96.30;;;;;;5000574;28;19924;-90
2022/01/03 01:58:03;;;;;;;;;;;2.30;96.40;;;;;;5000253;28;20268;-90
2022/01/03 02:00:29;;;;;;;;;;;2.30;96.50;;;;;;5000735;28;19988;-90
2022/01/03 02:03:06;;;;;;;;;;;2.30;96.60;;;;;;5000425;28;19956;-90
2022/01/03 02:05:52;;;;;;;;;;;2.40;96.80;;;;;;4999941;28;19995;-91
2022/01/03 02:08:28;;;;;;;;;;;2.40;96.90;;;;;;5000074;28;19911;-90
2022/01/03 02:11:03;;;;;;;;;;;2.40;97.10;;;;;;4999934;28;19918;-90
2022/01/03 02:13:29;;;;;;;;;;;2.40;97.20;;;;;;5000127;28;19960;-90
2022/01/03 02:16:03;;;;;;;;;;;2.40;97.30;;;;;;5000004;28;19932;-90
2022/01/03 02:18:29;;;;;;;;;;;2.40;97.60;;;;;;5000797;28;19913;-90
2022/01/03 02:20:55;;;;;;;;;;;2.50;97.60;;;;;;5000096;28;20000;-90
2022/01/03 02:23:21;;;;;;;;;;;2.50;98.00;;;;;;4999853;28;20374;-90
2022/01/03 02:25:46;;;;;;;;;;;2.50;98.30;;;;;;4999711;28;20272;-90
2022/01/03 02:28:12;;;;;;;;;;;2.50;98.60;;;;;;4999895;28;19905;-90
2022/01/03 02:30:38;;;;;;;;;;;2.50;98.70;;;;;;4999461;28;19906;-90
2022/01/03 02:33:04;;;;;;;;;;;2.50;98.80;;;;;;4999270;28;19917;-90
2022/01/03 02:35:34;;;;;;;;;;;2.50;98.80;;;;;;4999386;28;19977;-90
2022/01/03 02:38:00;;;;;;;;;;;2.50;99.00;;;;;;5016830;28;19928;-90
2022/01/03 02:40:25;;;;;;;;;;;2.60;99.00;;;;;;4999973;28;20333;-91
2022/01/03 02:42:51;;;;;;;;;;;2.50;99.20;;;;;;4999247;28;19916;-91
2022/01/03 02:45:20;;;;;;;;;;;2.50;99.30;;;;;;5016841;28;19992;-90
2022/01/03 02:47:51;;;;;;;;;;;2.50;99.50;;;;;;4999249;28;19961;-90
2022/01/03 02:50:17;;;;;;;;;;;2.50;99.50;;;;;;4999683;28;19906;-90
2022/01/03 02:52:43;;;;;;;;;;;2.60;99.60;;;;;;4999660;28;19910;-90
2022/01/03 02:55:09;;;;;;;;;;;2.50;99.80;;;;;;5016538;28;19909;-90
2022/01/03 02:57:36;;;;;;;;;;;2.60;99.90;;;;;;4999044;28;19993;-90
2022/01/03 03:00:03;;;;;;;;;;;2.60;99.90;;;;;;4999046;28;19915;-91
2022/01/03 03:02:29;;;;;;;;;;;2.60;99.90;;;;;;5016139;28;19906;-90
2022/01/03 03:04:58;;;;;;;;;;;2.60;99.90;;;;;;4999072;28;19912;-90
2022/01/03 03:07:25;;;;;;;;;;;2.70;99.90;;;;;;5016343;28;19913;-90
2022/01/03 03:09:51;;;;;;;;;;;2.70;99.90;;;;;;4998791;28;19909;-90
2022/01/03 03:12:17;;;;;;;;;;;2.70;99.90;;;;;;4977176;28;19922;-90
2022/01/03 03:14:42;;;;;;;;;;;2.70;99.90;;;;;;4976318;28;19906;-90
2022/01/03 03:17:08;;;;;;;;;;;2.70;99.90;;;;;;4977105;28;19906;-90
2022/01/03 03:19:55;;;;;;;;;;;2.70;99.90;;;;;;4976028;28;19906;-90
2022/01/03 03:22:21;;;;;;;;;;;2.80;99.90;;;;;;4975987;28;19906;-90
2022/01/03 03:24:47;;;;;;;;;;;2.70;99.90;;;;;;4976683;28;19961;-90
2022/01/03 03:27:12;;;;;;;;;;;2.80;99.90;;;;;;4976817;28;19906;-90
2022/01/03 03:29:42;;;;;;;;;;;2.80;99.90;;;;;;4975587;28;19910;-90
2022/01/03 03:32:08;;;;;;;;;;;2.80;99.90;;;;;;4976868;28;19914;-90
2022/01/03 03:34:33;;;;;;;;;;;2.80;99.90;;;;;;4975989;28;19913;-90
2022/01/03 03:36:59;;;;;;;;;;;2.80;99.90;;;;;;4975773;28;19957;-90
2022/01/03 03:39:24;;;;;;;;;;;2.80;99.90;;;;;;4975587;28;20365;-91
2022/01/03 03:41:50;;;;;;;;;;;2.90;99.90;;;;;;4975587;28;19906;-90
2022/01/03 03:44:15;;;;;;;;;;;2.90;99.90;;;;;;4975804;28;19906;-90
2022/01/03 03:46:41;;;;;;;;;;;2.90;99.90;;;;;;4976127;28;19916;-90
2022/01/03 03:49:07;;;;;;;;;;;2.90;99.90;;;;;;4976407;28;19961;-90
2022/01/03 03:51:38;;;;;;;;;;;2.90;99.90;;;;;;4975414;28;19910;-90
2022/01/03 03:54:04;;;;;;;;;;;2.90;99.90;;;;;;4976375;28;19936;-90
2022/01/03 03:56:30;;;;;;;;;;;2.90;99.90;;;;;;4975408;28;19906;-90
2022/01/03 03:58:55;;;;;;;;;;;2.90;99.90;;;;;;4975334;28;19913;-90
2022/01/03 04:01:21;;;;;;;;;;;2.90;99.90;;;;;;4975243;28;20293;-90
2022/01/03 04:03:46;;;;;;;;;;;2.90;99.90;;;;;;4975566;28;19953;-90
2022/01/03 04:06:12;;;;;;;;;;;3.00;99.90;;;;;;4975327;28;20342;-90
2022/01/03 04:08:38;;;;;;;;;;;3.00;99.90;;;;;;4975445;28;19906;-90
2022/01/03 04:11:03;;;;;;;;;;;3.00;99.90;;;;;;4975324;28;20005;-90
2022/01/03 04:13:29;;;;;;;;;;;3.00;99.90;;;;;;4975167;28;19914;-90
2022/01/03 04:15:54;;;;;;;;;;;3.00;99.90;;;;;;4975178;28;20353;-90
2022/01/03 04:18:20;;;;;;;;;;;3.00;99.90;;;;;;4976267;28;19913;-90
2022/01/03 04:20:45;;;;;;;;;;;3.00;99.90;;;;;;4975169;28;19906;-90
2022/01/03 04:23:11;;;;;;;;;;;3.10;99.90;;;;;;4975317;28;19961;-90
2022/01/03 04:25:37;;;;;;;;;;;3.10;99.90;;;;;;4975402;28;19906;-90
2022/01/03 04:28:02;;;;;;;;;;;3.20;99.90;;;;;;4975483;28;19912;-90
2022/01/03 04:30:28;;;;;;;;;;;3.10;99.90;;;;;;4974931;28;19906;-90
2022/01/03 04:32:53;;;;;;;;;;;3.20;99.90;;;;;;4976313;28;19929;-90
2022/01/03 04:35:19;;;;;;;;;;;3.20;99.90;;;;;;4974989;28;19993;-90
2022/01/03 04:37:45;;;;;;;;;;;3.20;99.90;;;;;;4975612;28;19906;-90
2022/01/03 04:40:10;;;;;;;;;;;3.20;99.90;;;;;;4975444;28;19914;-90
2022/01/03 04:42:36;;;;;;;;;;;3.20;99.90;;;;;;4980241;28;19906;-90
2022/01/03 04:45:02;;;;;;;;;;;3.20;99.90;;;;;;4980033;28;19994;-90
2022/01/03 04:47:28;;;;;;;;;;;3.20;99.90;;;;;;4978849;28;20350;-90
2022/01/03 04:49:54;;;;;;;;;;;3.20;99.90;;;;;;4978902;28;19906;-90
2022/01/03 04:52:19;;;;;;;;;;;3.20;99.90;;;;;;4978655;28;20242;-90
2022/01/03 04:54:45;;;;;;;;;;;3.30;99.90;;;;;;4979070;28;19910;-90
2022/01/03 04:57:11;;;;;;;;;;;3.30;99.90;;;;;;4978816;28;20371;-90
2022/01/03 04:59:36;;;;;;;;;;;3.30;99.90;;;;;;4978673;28;19906;-90
2022/01/03 05:02:03;;;;;;;;;;;3.30;99.90;;;;;;4978681;28;19906;-90
2022/01/03 05:04:29;;;;;;;;;;;3.40;99.90;;;;;;4978402;28;20376;-90
2022/01/03 05:06:55;;;;;;;;;;;3.30;99.90;;;;;;4978440;28;19907;-90
2022/01/03 05:09:20;;;;;;;;;;;3.30;99.90;;;;;;4979032;28;20071;-90
2022/01/03 05:11:46;;;;;;;;;;;3.30;99.90;;;;;;5007867;28;19925;-90
2022/01/03 05:14:11;;;;;;;;;;;3.30;99.90;;;;;;5000987;28;19949;-91
2022/01/03 05:16:37;;;;;;;;;;;3.30;99.90;;;;;;5000955;28;20004;-90
2022/01/03 05:19:03;;;;;;;;;;;3.30;99.90;;;;;;5001336;28;20390;-90
2022/01/03 05:21:28;;;;;;;;;;;3.40;99.90;;;;;;5001227;28;20272;-90
2022/01/03 05:23:54;;;;;;;;;;;3.40;99.90;;;;;;5001512;28;20352;-90
2022/01/03 05:26:19;;;;;;;;;;;3.40;99.90;;;;;;5001243;28;20000;-90
2022/01/03 05:28:48;;;;;;;;;;;3.40;99.90;;;;;;5018515;28;19912;-90
2022/01/03 05:31:14;;;;;;;;;;;3.40;99.90;;;;;;5000652;28;19905;-90
2022/01/03 05:33:40;;;;;;;;;;;3.40;99.90;;;;;;5000351;28;19920;-90
2022/01/03 05:36:05;;;;;;;;;;;3.40;99.90;;;;;;5000739;28;19906;-91
2022/01/03 05:38:31;;;;;;;;;;;3.40;99.90;;;;;;5018121;28;20344;-90
2022/01/03 05:40:57;;;;;;;;;;;3.30;99.90;;;;;;5000514;28;20352;-91
2022/01/03 05:43:22;;;;;;;;;;;3.30;99.90;;;;;;5000597;28;20004;-91
2022/01/03 05:45:48;;;;;;;;;;;3.40;99.90;;;;;;5006172;28;19906;-90
2022/01/03 05:48:13;;;;;;;;;;;3.30;99.90;;;;;;5009276;28;19992;-91
2022/01/03 05:50:39;;;;;;;;;;;3.40;99.90;;;;;;5008555;28;19912;-91
2022/01/03 05:53:04;;;;;;;;;;;3.40;99.90;;;;;;5019996;28;19921;-91
2022/01/03 05:55:30;;;;;;;;;;;3.40;99.90;;;;;;5000692;28;19917;-91
2022/01/03 05:57:55;;;;;;;;;;;3.30;99.90;;;;;;5000288;28;20332;-91
2022/01/03 06:00:24;;;;;;;;;;;3.40;99.90;;;;;;5000375;28;19909;-90
2022/01/03 06:02:54;;;;;;;;;;;3.30;99.90;;;;;;5001555;28;20376;-90
2022/01/03 06:05:32;;;;;;;;;;;3.30;99.90;;;;;;5000965;28;19913;-91
2022/01/03 06:07:58;;;;;;;;;;;3.30;99.90;;;;;;5000966;28;19912;-90
2022/01/03 06:10:24;;;;;;;;;;;3.30;99.90;;;;;;4999780;28;20015;-91
2022/01/03 06:12:50;;;;;;;;;;;3.40;99.90;;;;;;5000667;28;19968;-90
2022/01/03 06:15:16;;;;;;;;;;;3.40;99.90;;;;;;5000540;28;20348;-91
2022/01/03 06:17:45;;;;;;;;;;;3.40;99.90;;;;;;5000105;28;20345;-91
2022/01/03 06:20:11;;;;;;;;;;;3.30;99.90;;;;;;4999861;28;20352;-90
2022/01/03 06:22:37;;;;;;;;;;;3.30;99.90;;;;;;5000332;28;19952;-90
2022/01/03 06:25:03;;;;;;;;;;;3.30;99.90;;;;;;5000695;28;20349;-90
2022/01/03 06:27:28;;;;;;;;;;;3.30;99.90;;;;;;5017333;28;19956;-91
2022/01/03 06:29:54;;;;;;;;;;;3.30;99.90;;;;;;4999772;28;19912;-90
2022/01/03 06:32:19;;;;;;;;;;;3.30;99.90;;;;;;5016873;28;19913;-91
2022/01/03 06:34:45;;;;;;;;;;;3.30;99.90;;;;;;5016793;28;20352;-90
2022/01/03 06:37:11;;;;;;;;;;;3.30;99.90;;;;;;5000563;28;19916;-91
2022/01/03 06:39:37;;;;;;;;;;;3.30;99.90;;;;;;4999747;28;19905;-90
2022/01/03 06:42:02;;;;;;;;;;;3.30;99.90;;;;;;4999751;28;20336;-91
2022/01/03 06:44:28;;;;;;;;;;;3.40;99.90;;;;;;4999617;28;19972;-90
2022/01/03 06:46:53;;;;;;;;;;;3.40;99.90;;;;;;5016482;28;20322;-90
2022/01/03 06:49:19;;;;;;;;;;;3.50;99.90;;;;;;4999405;28;19937;-90
2022/01/03 06:51:45;;;;;;;;;;;3.50;99.90;;;;;;4999156;28;19952;-91
2022/01/03 06:54:11;;;;;;;;;;;3.60;99.90;;;;;;4999620;28;20371;-91
2022/01/03 06:56:37;;;;;;;;;;;3.70;99.90;;;;;;4998871;28;19969;-91
2022/01/03 06:59:03;;;;;;;;;;;3.70;99.90;;;;;;4999323;28;19916;-91
2022/01/03 07:01:30;;;;;;;;;;;3.80;99.90;;;;;;5016690;28;19933;-90
2022/01/03 07:03:55;;;;;;;;;;;3.80;99.90;;;;;;4998263;28;19905;-92
2022/01/03 07:06:21;;;;;;;;;;;3.90;99.90;;;;;;4999468;28;19916;-92
2022/01/03 07:08:46;;;;;;;;;;;4.00;99.90;;;;;;4999350;28;19906;-92
2022/01/03 07:11:13;;;;;;;;;;;4.00;99.90;;;;;;4998654;28;20314;-91
2022/01/03 07:13:52;;;;;;;;;;;4.10;99.90;;;;;;4998119;28;20283;-90
2022/01/03 07:19:06;;;;;;;;;;;4.20;99.90;;;;;;5016948;28;20332;-90
2022/01/03 07:21:32;;;;;;;;;;;4.30;99.90;;;;;;4999018;28;19909;-90
2022/01/03 07:23:58;;;;;;;;;;;4.30;99.90;;;;;;5016320;28;20259;-91
2022/01/03 07:26:27;;;;;;;;;;;4.30;99.90;;;;;;4998589;28;19912;-90
2022/01/03 07:28:53;;;;;;;;;;;4.30;99.90;;;;;;4995272;28;19912;-90
2022/01/03 07:31:20;;;;;;;;;;;4.30;99.90;;;;;;5015787;28;19905;-90
2022/01/03 07:33:46;;;;;;;;;;;4.30;99.90;;;;;;4998012;28;19923;-91
2022/01/03 07:36:12;;;;;;;;;;;4.40;99.90;;;;;;5015805;28;19906;-91
2022/01/03 07:38:38;;;;;;;;;;;4.40;99.90;;;;;;4999066;28;19912;-90
2022/01/03 07:41:04;;;;;;;;;;;4.30;99.90;;;;;;5015606;28;19909;-90
2022/01/03 07:43:30;;;;;;;;;;;4.30;99.90;;;;;;4998238;28;19973;-91
2022/01/03 07:45:56;;;;;;;;;;;4.30;99.90;;;;;;4998608;28;19912;-91
2022/01/03 07:48:21;;;;;;;;;;;4.40;99.90;;;;;;4998290;28;20277;-91
2022/01/03 07:50:51;;;;;;;;;;;4.30;99.90;;;;;;5016119;28;19964;-92
2022/01/03 07:53:17;;;;;;;;;;;4.40;99.90;;;;;;4998139;28;20059;-91
2022/01/03 07:55:43;;;;;;;;;;;4.40;99.90;;;;;;5015168;28;19916;-90
2022/01/03 07:58:09;;;;;;;;;;;4.40;99.90;;;;;;4997950;28;19909;-91
2022/01/03 08:00:34;;;;;;;;;;;4.40;99.90;;;;;;4982114;28;19913;-91
2022/01/03 08:03:00;;;;;;;;;;;4.40;99.90;;;;;;4997469;28;19913;-91
2022/01/03 08:05:26;;;;;;;;;;;4.40;99.90;;;;;;4997615;28;19992;-92
2022/01/03 08:07:52;;;;;;;;;;;4.50;99.90;;;;;;4982198;28;19917;-91
2022/01/03 08:10:17;;;;;;;;;;;4.60;99.90;;;;;;4998116;28;19906;-91
2022/01/03 08:12:44;;;;;;;;;;;4.70;99.90;;;;;;5000886;28;20279;-90
2022/01/03 08:15:12;;;;;;;;;;;4.90;99.90;;;;;;5009034;28;20284;-91
2022/01/03 08:17:38;;;;;;;;;;;5.00;99.90;;;;;;5010542;28;19905;-91
2022/01/03 08:20:07;;;;;;;;;;;5.00;99.90;;;;;;5011115;28;19906;-91
2022/01/03 08:22:34;;;;;;;;;;;5.10;99.90;;;;;;5020261;28;19932;-90
2022/01/03 08:25:05;;;;;;;;;;;5.10;99.90;;;;;;4998409;28;19912;-91
2022/01/03 08:27:34;;;;;;;;;;;5.10;99.90;;;;;;5016380;28;19924;-90
2022/01/03 08:29:59;;;;;;;;;;;5.10;99.90;;;;;;4998123;28;19910;-91
2022/01/03 08:32:25;;;;;;;;;;;5.10;99.90;;;;;;4997163;28;19914;-92
2022/01/03 08:34:51;;;;;;;;;;;5.10;99.90;;;;;;4997642;28;19909;-91
2022/01/03 08:37:16;;;;;;;;;;;5.10;99.90;;;;;;4997559;28;19973;-91
2022/01/03 08:39:45;;;;;;;;;;;5.10;99.90;;;;;;4998142;28;19952;-91
2022/01/03 08:42:10;;;;;;;;;;;5.20;99.90;;;;;;4998116;28;19912;-92
2022/01/03 08:44:42;;;;;;;;;;;5.30;99.90;;;;;;5015027;28;20374;-92
2022/01/03 08:47:08;;;;;;;;;;;5.30;99.90;;;;;;4997597;28;19945;-91
2022/01/03 08:49:34;;;;;;;;;;;5.40;99.90;;;;;;4997378;28;19956;-91
2022/01/03 08:52:01;;;;;;;;;;;5.40;99.90;;;;;;4996915;28;19906;-91
2022/01/03 08:54:27;;;;;;;;;;;5.40;99.90;;;;;;5015039;28;19920;-93
2022/01/03 08:56:54;;;;;;;;;;;5.50;99.90;;;;;;4997452;28;19905;-91
2022/01/03 08:59:19;;;;;;;;;;;5.50;99.90;;;;;;5015005;28;19905;-91
2022/01/03 09:01:45;;;;;;;;;;;5.50;99.90;;;;;;4996812;28;19912;-91
2022/01/03 09:04:11;;;;;;;;;;;5.50;99.90;;;;;;5015169;28;19910;-91
2022/01/03 09:06:37;;;;;;;;;;;5.50;99.90;;;;;;4997034;28;19960;-91
2022/01/03 09:09:07;;;;;;;;;;;5.50;99.90;;;;;;4981291;28;20371;-90
2022/01/03 09:11:34;;;;;;;;;;;5.50;99.90;;;;;;4997847;28;19928;-91
2022/01/03 09:14:00;;;;;;;;;;;5.50;99.90;;;;;;5014525;28;19914;-91
2022/01/03 09:16:25;;;;;;;;;;;5.50;99.90;;;;;;4996986;28;19913;-92
2022/01/03 09:18:51;;;;;;;;;;;5.50;99.90;;;;;;4997227;28;19924;-92
2022/01/03 09:21:17;;;;;;;;;;;5.50;99.90;;;;;;4997298;28;19905;-92
2022/01/03 09:23:47;;;;;;;;;;;5.50;99.90;;;;;;4997137;28;19913;-92
2022/01/03 09:31:48;;;;;;;;;;;5.50;99.90;;;;;;5015434;28;19914;-92
2022/01/03 09:34:14;;;;;;;;;;;5.50;99.90;;;;;;5017844;28;19936;-90
2022/01/03 09:36:43;;;;;;;;;;;5.50;99.90;;;;;;5018492;28;19911;-90
2022/01/03 09:39:20;;;;;;;;;;;;;;;;;;;;;
2022/01/03 09:41:58;;;;;;;;;;;5.70;99.90;;;;;;5018697;28;19906;-92
2022/01/03 09:44:34;;;;;;;;;;;5.70;99.90;;;;;;5018719;28;20007;-92
2022/01/03 09:47:21;;;;;;;;;;;5.80;99.90;;;;;;5018083;28;19916;-92
2022/01/03 09:49:49;;;;;;;;;;;5.90;99.90;;;;;;5017946;28;19972;-90
2022/01/03 09:52:23;;;;;;;;;;;6.00;99.90;;;;;;5017742;28;19928;-92
2022/01/03 09:54:54;;;;;;;;;;;6.10;99.90;;;;;;5015904;28;19913;-91
2022/01/03 09:57:33;;;;;;;;;;;6.10;99.90;;;;;;5017911;28;20307;-91
2022/01/03 10:00:00;;;;;;;;;;;6.20;99.90;;;;;;5000699;28;19932;-92
2022/01/03 10:02:26;;;;;;;;;;;6.30;99.90;;;;;;5000390;28;19929;-92
2022/01/03 10:04:52;;;;;;;;;;;6.40;99.90;;;;;;4999956;28;19909;-92
2022/01/03 10:07:21;;;;;;;;;;;6.50;99.90;;;;;;5017169;28;19973;-92
2022/01/03 10:09:47;;;;;;;;;;;6.60;99.90;;;;;;5000546;28;20004;-92
2022/01/03 10:12:17;;;;;;;;;;;6.70;99.90;;;;;;5000036;28;20325;-92
2022/01/03 10:14:43;;;;;;;;;;;6.70;99.90;;;;;;4983840;28;19929;-92
2022/01/03 10:17:09;;;;;;;;;;;6.90;99.90;;;;;;4984093;28;19959;-92
2022/01/03 10:19:50;;;;;;;;;;;7.00;99.90;;;;;;5000449;28;20315;-92
2022/01/03 10:22:21;;;;;;;;;;;7.10;99.80;;;;;;5000444;28;19952;-92
2022/01/03 10:24:47;;;;;;;;;;;7.10;99.20;;;;;;5016435;28;20336;-92
2022/01/03 10:27:14;;;;;;;;;;;7.20;99.40;;;;;;5017606;28;20335;-91
2022/01/03 10:29:41;;;;;;;;;;;7.20;99.40;;;;;;4983408;28;19925;-92
2022/01/03 10:32:10;;;;;;;;;;;7.30;99.70;;;;;;4999568;28;19913;-92
2022/01/03 10:34:35;;;;;;;;;;;7.40;99.40;;;;;;4999493;28;19913;-92
2022/01/03 10:37:09;;;;;;;;;;;7.40;98.70;;;;;;5016815;28;19917;-92
2022/01/03 10:39:35;;;;;;;;;;;7.40;98.80;;;;;;4999261;28;19916;-92
2022/01/03 10:42:20;;;;;;;;;;;7.50;98.70;;;;;;5000141;28;19905;-92
2022/01/03 10:44:47;;;;;;;;;;;7.50;98.90;;;;;;4999451;28;20348;-92
2022/01/03 10:47:15;;;;;;;;;;;7.60;98.20;;;;;;4999233;28;20362;-92
2022/01/03 10:49:42;;;;;;;;;;;7.60;98.40;;;;;;4999294;28;19906;-92
2022/01/03 10:52:14;;;;;;;;;;;7.60;98.70;;;;;;4999650;28;20407;-92
2022/01/03 10:54:40;;;;;;;;;;;7.60;98.30;;;;;;4999120;28;19968;-91
2022/01/03 10:57:05;;;;;;;;;;;7.60;98.40;;;;;;4999670;28;19906;-92
2022/01/03 10:59:34;;;;;;;;;;;7.60;98.50;;;;;;5016391;28;19909;-92
2022/01/03 11:02:03;;;;;;;;;;;7.60;98.60;;;;;;4999536;28;19909;-91
2022/01/03 11:04:50;;;;;;;;;;;7.70;98.60;;;;;;4998970;28;19909;-92
2022/01/03 11:13:01;;;;;;;;;;;7.80;98.80;;;;;;5016801;28;19925;-91
2022/01/03 11:15:27;;;;;;;;;;;7.90;98.60;;;;;;4999198;28;19913;-92
2022/01/03 11:18:06;;;;;;;;;;;7.90;98.70;;;;;;5016581;28;19905;-92
2022/01/03 11:20:33;;;;;;;;;;;7.90;98.50;;;;;;4999500;28;19910;-91
2022/01/03 11:22:59;;;;;;;;;;;7.90;98.60;;;;;;5022715;28;19905;-91
2022/01/03 11:25:32;;;;;;;;;;;7.90;98.50;;;;;;5010015;28;19910;-91
2022/01/03 11:27:59;;;;;;;;;;;7.90;98.30;;;;;;5009993;28;19968;-91
2022/01/03 11:30:24;;;;;;;;;;;7.90;98.60;;;;;;5002745;28;19909;-91
2022/01/03 11:32:50;;;;;;;;;;;8.00;98.40;;;;;;4997807;28;19925;-91
2022/01/03 11:35:16;;;;;;;;;;;8.10;98.60;;;;;;4998375;28;19917;-90
2022/01/03 11:37:44;;;;;;;;;;;8.20;98.50;;;;;;4998325;28;20002;-91
2022/01/03 11:40:14;;;;;;;;;;;8.30;98.30;;;;;;4999216;28;19928;-91
2022/01/03 11:42:40;;;;;;;;;;;8.30;98.00;;;;;;4998883;28;19973;-91
2022/01/03 11:45:06;;;;;;;;;;;8.40;97.90;;;;;;5015294;28;19912;-91
2022/01/03 11:47:33;;;;;;;;;;;8.50;97.60;;;;;;4998204;28;19909;-91
2022/01/03 11:50:01;;;;;;;;;;;8.50;97.40;;;;;;5015653;28;19905;-91
2022/01/03 11:52:28;;;;;;;;;;;8.50;97.10;;;;;;4998458;28;19905;-91
2022/01/03 11:54:55;;;;;;;;;;;8.60;97.30;;;;;;4998693;28;20264;-91
2022/01/03 11:57:47;;;;;;;;;;;8.60;97.40;;;;;;4997811;28;19920;-91
2022/01/03 12:05:50;;;;;;;;;;;8.60;97.10;;;;;;5000634;28;19917;-92
2022/01/03 12:08:49;;;;;;;;;;;8.60;96.90;;;;;;4997929;28;19992;-91
2022/01/03 12:11:21;;;;;;;;;;;8.70;96.90;;;;;;5014630;28;19917;-92
2022/01/03 12:13:51;;;;;;;;;;;8.70;97.10;;;;;;4997775;28;19920;-92
2022/01/03 12:16:18;;;;;;;;;;;8.70;96.50;;;;;;4998155;28;19920;-93
2022/01/03 12:19:00;;;;;;;;;;;8.70;96.80;;;;;;4998789;28;19905;-92
2022/01/03 12:21:44;;;;;;;;;;;8.80;96.50;;;;;;4978020;28;20008;-92
2022/01/03 12:24:30;;;;;;;;;;;8.80;96.30;;;;;;4977997;28;20391;-92
2022/01/03 12:27:14;;;;;;;;;;;8.80;96.70;;;;;;4974095;28;19964;-92
2022/01/03 12:30:03;;;;;;;;;;;8.80;96.50;;;;;;4978998;28;19953;-92
2022/01/03 12:32:32;;;;;;;;;;;8.90;96.90;;;;;;4975292;28;19906;-91
2022/01/03 12:35:23;;;;;;;;;;;8.90;96.70;;;;;;4996122;28;19918;-91
2022/01/03 12:37:52;;;;;;;;;;;8.90;96.60;;;;;;4978754;28;20349;-91
2022/01/03 12:40:21;;;;;;;;;;;8.80;96.60;;;;;;4978244;28;19944;-92
2022/01/03 12:42:48;;;;;;;;;;;8.90;96.70;;;;;;4979448;28;20356;-91
2022/01/03 12:45:28;;;;;;;;;;;8.90;96.70;;;;;;4995456;28;19905;-92
2022/01/03 12:47:55;;;;;;;;;;;8.90;96.40;;;;;;4978076;28;19937;-91
2022/01/03 12:50:27;;;;;;;;;;;9.00;96.40;;;;;;4978492;28;19912;-91
2022/01/03 12:52:54;;;;;;;;;;;9.00;96.60;;;;;;4977944;28;19956;-91
2022/01/03 12:55:38;;;;;;;;;;;8.90;96.50;;;;;;4995219;28;19956;-92
2022/01/03 12:58:23;;;;;;;;;;;9.00;96.40;;;;;;4995312;28;19906;-91
2022/01/03 13:00:56;;;;;;;;;;;8.90;96.30;;;;;;4977558;28;19906;-91
2022/01/03 13:03:23;;;;;;;;;;;8.90;96.50;;;;;;4981888;28;19909;-92
2022/01/03 13:06:07;;;;;;;;;;;9.00;96.60;;;;;;4982145;28;19996;-92
2022/01/03 13:08:37;;;;;;;;;;;9.00;96.60;;;;;;4982690;28;19945;-92
2022/01/03 13:11:06;;;;;;;;;;;8.90;96.40;;;;;;4981495;28;19917;-91
2022/01/03 13:13:31;;;;;;;;;;;9.00;96.50;;;;;;4981948;28;19914;-92
2022/01/03 13:15:57;;;;;;;;;;;9.00;96.40;;;;;;4982133;28;19917;-92
2022/01/03 13:18:23;;;;;;;;;;;9.00;96.50;;;;;;4981802;28;19913;-92
2022/01/03 13:20:59;;;;;;;;;;;9.00;96.30;;;;;;4998874;28;19906;-91
2022/01/03 13:23:25;;;;;;;;;;;9.00;96.30;;;;;;4983299;28;19910;-91
2022/01/03 13:26:10;;;;;;;;;;;8.90;96.30;;;;;;4998636;28;19906;-91
2022/01/03 13:28:46;;;;;;;;;;;9.00;96.30;;;;;;4981189;28;20376;-92
2022/01/03 13:31:11;;;;;;;;;;;9.00;96.50;;;;;;4981209;28;19946;-91
2022/01/03 13:33:37;;;;;;;;;;;9.00;96.30;;;;;;4981065;28;19913;-91
2022/01/03 13:36:03;;;;;;;;;;;9.00;96.30;;;;;;4981748;28;20008;-91
2022/01/03 13:38:29;;;;;;;;;;;9.00;96.40;;;;;;4981676;28;19961;-91
2022/01/03 13:41:09;;;;;;;;;;;8.90;96.30;;;;;;4981423;28;19944;-91
2022/01/03 13:43:40;;;;;;;;;;;8.90;96.30;;;;;;4981736;28;19912;-91
2022/01/03 13:51:16;;;;;;;;;;;8.80;96.60;;;;;;4998384;28;20388;-92
2022/01/03 13:53:51;;;;;;;;;;;8.80;96.70;;;;;;4980856;28;19909;-92
2022/01/03 13:56:17;;;;;;;;;;;8.80;96.90;;;;;;4981744;28;19921;-92
2022/01/03 13:58:44;;;;;;;;;;;8.70;97.00;;;;;;4981258;28;19906;-92
2022/01/03 14:01:09;;;;;;;;;;;8.70;97.10;;;;;;4998088;28;19912;-91
2022/01/03 14:03:36;;;;;;;;;;;8.70;97.20;;;;;;4980689;28;20012;-91
2022/01/03 14:06:15;;;;;;;;;;;8.70;97.30;;;;;;4980427;28;20411;-91
2022/01/03 14:08:41;;;;;;;;;;;8.70;97.40;;;;;;4997693;28;19996;-91
2022/01/03 14:11:11;;;;;;;;;;;8.70;97.50;;;;;;4981567;28;19952;-89
2022/01/03 14:13:37;;;;;;;;;;;8.60;97.50;;;;;;4997726;28;19910;-90
2022/01/03 14:16:10;;;;;;;;;;;8.60;97.60;;;;;;4980798;28;20306;-90
2022/01/03 14:18:42;;;;;;;;;;;8.60;97.60;;;;;;4980328;28;19906;-90
2022/01/03 14:21:07;;;;;;;;;;;8.60;97.60;;;;;;4997764;28;19956;-90
2022/01/03 14:23:34;;;;;;;;;;;8.60;97.70;;;;;;4980727;28;19906;-89
2022/01/03 14:26:13;;;;;;;;;;;8.60;97.70;;;;;;4980449;28;19906;-90
2022/01/03 14:28:39;;;;;;;;;;;8.60;97.70;;;;;;4979953;28;19906;-90
2022/01/03 14:31:05;;;;;;;;;;;8.60;97.70;;;;;;4980151;28;19957;-93
2022/01/03 14:33:30;;;;;;;;;;;8.60;97.80;;;;;;4979988;28;19917;-91
2022/01/03 14:35:56;;;;;;;;;;;8.60;97.80;;;;;;4980551;28;19916;-91
2022/01/03 14:38:24;;;;;;;;;;;8.60;97.80;;;;;;4981609;28;19916;-91
2022/01/03 14:40:51;;;;;;;;;;;8.60;97.70;;;;;;4981610;28;19906;-92
2022/01/03 14:43:23;;;;;;;;;;;8.60;97.70;;;;;;4990642;28;19912;-90
2022/01/03 14:45:50;;;;;;;;;;;8.60;98.00;;;;;;4990900;28;19976;-91
2022/01/03 14:48:20;;;;;;;;;;;8.60;97.70;;;;;;4990675;28;19996;-91
2022/01/03 14:51:08;;;;;;;;;;;8.60;97.70;;;;;;4986665;28;19906;-90
2022/01/03 14:53:34;;;;;;;;;;;8.60;97.70;;;;;;4980357;28;19910;-90
2022/01/03 14:56:00;;;;;;;;;;;8.60;97.70;;;;;;4979621;28;20004;-91
2022/01/03 14:58:25;;;;;;;;;;;8.60;97.60;;;;;;4979331;28;19906;-91
2022/01/03 15:00:51;;;;;;;;;;;8.60;97.60;;;;;;4979882;28;19972;-91
2022/01/03 15:03:17;;;;;;;;;;;8.60;97.70;;;;;;4979763;28;19905;-91
2022/01/03 15:05:45;;;;;;;;;;;8.60;97.60;;;;;;4979952;28;19905;-91